createdAt,value
2023-04-27T00:02:19.249Z,62.48
2023-04-27T00:05:13.615Z,62.11
2023-04-27T00:08:06.796Z,62.06
2023-04-27T00:11:01.113Z,62.24
2023-04-27T00:13:53.908Z,62.40
2023-04-27T00:16:46.067Z,62.74
2023-04-27T00:19:39.811Z,62.48
2023-04-27T00:22:32.869Z,62.94
2023-04-27T00:25:25.630Z,62.72
2023-04-27T00:28:02.635Z,62.68
2023-04-27T00:30:55.595Z,62.03
2023-04-27T00:33:48.545Z,62.76
2023-04-27T00:36:41.318Z,62.76
2023-04-27T00:39:35.649Z,62.92
2023-04-27T00:42:28.598Z,63.25
2023-04-27T00:45:21.574Z,63.28
2023-04-27T00:48:14.874Z,63.37
2023-04-27T00:51:06.581Z,63.73
2023-04-27T00:54:01.354Z,63.78
2023-04-27T00:56:54.245Z,63.88
2023-04-27T00:59:46.870Z,63.75
2023-04-27T01:02:40.544Z,63.60
2023-04-27T01:05:33.569Z,64.06
2023-04-27T01:08:26.540Z,63.76
2023-04-27T01:11:19.149Z,64.04
2023-04-27T01:14:11.850Z,64.01
2023-04-27T01:17:04.617Z,64.17
2023-04-27T01:19:51.591Z,64.30
2023-04-27T01:22:45.052Z,64.28
2023-04-27T01:25:30.676Z,64.28
2023-04-27T01:28:24.138Z,64.37
2023-04-27T01:31:17.128Z,64.35
2023-04-27T01:34:11.898Z,64.48
2023-04-27T01:37:04.834Z,64.58
2023-04-27T01:39:59.432Z,64.74
2023-04-27T01:42:50.645Z,64.79
2023-04-27T01:45:43.548Z,64.76
2023-04-27T01:48:37.204Z,64.84
2023-04-27T01:51:28.511Z,64.85
2023-04-27T01:54:21.324Z,64.98
2023-04-27T01:57:15.659Z,65.11
2023-04-27T02:00:10.627Z,65.22
2023-04-27T02:02:57.765Z,65.46
2023-04-27T02:05:50.879Z,65.52
2023-04-27T02:08:44.443Z,65.42
2023-04-27T02:11:36.974Z,65.65
2023-04-27T02:14:29.952Z,65.72
2023-04-27T02:17:23.111Z,65.82
2023-04-27T02:20:16.078Z,65.76
2023-04-27T02:23:08.860Z,65.81
2023-04-27T02:26:01.796Z,65.99
2023-04-27T02:28:54.559Z,65.98
2023-04-27T02:31:47.915Z,66.14
2023-04-27T02:34:41.500Z,66.06
2023-04-27T02:37:34.186Z,66.08
2023-04-27T02:40:26.720Z,66.03
2023-04-27T02:43:19.482Z,66.06
2023-04-27T02:46:12.551Z,66.26
2023-04-27T02:49:05.762Z,66.29
2023-04-27T02:51:52.787Z,66.40
2023-04-27T02:54:44.132Z,66.38
2023-04-27T02:57:37.690Z,66.36
2023-04-27T03:00:30.769Z,66.59
2023-04-27T03:03:25.248Z,66.58
2023-04-27T03:06:18.888Z,66.71
2023-04-27T03:09:14.969Z,66.80
2023-04-27T03:12:08.822Z,66.89
2023-04-27T03:15:02.298Z,66.80
2023-04-27T03:17:55.215Z,66.92
2023-04-27T03:20:49.398Z,67.08
2023-04-27T03:23:42.388Z,66.90
2023-04-27T03:26:35.445Z,66.95
2023-04-27T03:29:28.207Z,67.05
2023-04-27T03:32:21.189Z,67.05
2023-04-27T03:35:11.595Z,66.98
2023-04-27T03:38:05.930Z,67.21
2023-04-27T03:40:57.619Z,67.16
2023-04-27T03:44:10.510Z,67.30
2023-04-27T03:46:56.250Z,67.30
2023-04-27T03:49:50.417Z,67.63
2023-04-27T03:52:43.229Z,67.51
2023-04-27T03:55:39.155Z,67.47
2023-04-27T03:58:31.851Z,67.45
2023-04-27T04:01:27.792Z,67.31
2023-04-27T04:04:11.472Z,67.45
2023-04-27T04:07:06.813Z,67.33
2023-04-27T04:09:59.314Z,66.91
2023-04-27T04:12:54.239Z,66.86
2023-04-27T04:15:47.075Z,66.50
2023-04-27T04:18:41.011Z,66.36
2023-04-27T04:21:34.005Z,66.09
2023-04-27T04:24:28.817Z,65.93
2023-04-27T04:27:21.903Z,65.56
2023-04-27T04:30:17.322Z,65.23
2023-04-27T04:33:10.291Z,65.17
2023-04-27T04:36:07.000Z,64.95
2023-04-27T04:39:00.566Z,64.35
2023-04-27T04:41:53.290Z,63.81
2023-04-27T04:44:46.105Z,63.44
2023-04-27T04:47:39.848Z,63.28
2023-04-27T04:50:32.749Z,62.67
2023-04-27T04:53:26.343Z,62.33
2023-04-27T04:56:17.015Z,62.00
2023-04-27T04:59:10.101Z,61.30
2023-04-27T05:02:03.217Z,60.90
2023-04-27T05:04:57.964Z,60.50
2023-04-27T05:07:50.880Z,59.60
2023-04-27T05:10:34.405Z,59.46
2023-04-27T05:13:27.304Z,59.88
2023-04-27T05:16:20.386Z,60.04
2023-04-27T05:19:18.258Z,60.65
2023-04-27T05:22:11.301Z,60.62
2023-04-27T05:25:04.657Z,60.63
2023-04-27T05:27:57.676Z,60.76
2023-04-27T05:30:40.611Z,60.99
2023-04-27T05:33:34.140Z,61.03
2023-04-27T05:36:27.201Z,61.23
2023-04-27T05:39:19.916Z,61.65
2023-04-27T05:42:03.966Z,61.31
2023-04-27T05:44:56.677Z,61.21
2023-04-27T05:47:51.332Z,60.87
2023-04-27T05:50:44.304Z,60.75
2023-04-27T05:53:38.881Z,60.51
2023-04-27T05:56:32.016Z,60.40
2023-04-27T05:59:27.590Z,60.48
2023-04-27T06:02:11.512Z,59.92
2023-04-27T06:05:04.186Z,59.74
2023-04-27T06:07:57.086Z,59.61
2023-04-27T06:10:49.965Z,59.41
2023-04-27T06:13:42.666Z,59.16
2023-04-27T06:16:35.256Z,59.35
2023-04-27T06:19:13.017Z,59.18
2023-04-27T06:21:46.486Z,58.46
2023-04-27T06:24:19.387Z,58.22
2023-04-27T06:26:55.501Z,58.23
2023-04-27T06:29:30.005Z,58.32
2023-04-27T06:32:07.451Z,57.78
2023-04-27T06:34:40.519Z,57.61
2023-04-27T06:37:17.439Z,57.86
2023-04-27T06:39:59.550Z,57.19
2023-04-27T06:42:32.348Z,56.71
2023-04-27T06:45:24.995Z,56.21
2023-04-27T06:47:59.139Z,56.04
2023-04-27T06:50:34.917Z,54.66
2023-04-27T06:53:17.438Z,54.31
2023-04-27T06:56:00.137Z,53.90
2023-04-27T06:58:52.812Z,53.48
2023-04-27T07:01:34.599Z,53.48
2023-04-27T07:04:08.037Z,52.23
2023-04-27T07:07:00.781Z,52.79
2023-04-27T07:09:33.661Z,51.89
2023-04-27T07:12:08.948Z,52.15
2023-04-27T07:14:44.709Z,51.41
2023-04-27T07:17:17.188Z,50.86
2023-04-27T07:19:50.109Z,50.45
2023-04-27T07:22:22.827Z,49.44
2023-04-27T07:25:04.523Z,49.56
2023-04-27T07:27:41.625Z,48.10
2023-04-27T07:30:17.979Z,49.47
2023-04-27T07:33:11.147Z,51.32
2023-04-27T07:36:05.579Z,52.30
2023-04-27T07:38:58.822Z,52.21
2023-04-27T07:41:34.798Z,52.18
2023-04-27T07:44:18.990Z,52.65
2023-04-27T07:46:58.700Z,53.07
2023-04-27T07:49:34.408Z,53.31
2023-04-27T07:52:09.842Z,53.64
2023-04-27T07:55:03.234Z,53.98
2023-04-27T07:57:41.612Z,54.46
2023-04-27T08:00:17.983Z,54.73
2023-04-27T08:02:50.968Z,55.07
2023-04-27T08:05:24.617Z,55.24
2023-04-27T08:08:08.196Z,55.64
2023-04-27T08:10:48.998Z,55.52
2023-04-27T08:13:35.150Z,55.34
2023-04-27T08:16:08.512Z,55.49
2023-04-27T08:18:44.906Z,55.15
2023-04-27T08:21:18.441Z,55.29
2023-04-27T08:23:58.360Z,55.38
2023-04-27T08:26:30.892Z,55.27
2023-04-27T08:29:28.530Z,55.05
2023-04-27T08:32:00.916Z,54.81
2023-04-27T08:34:38.908Z,54.74
2023-04-27T08:37:15.166Z,53.79
2023-04-27T08:39:51.231Z,53.29
2023-04-27T08:42:58.334Z,53.24
2023-04-27T08:45:53.398Z,52.91
2023-04-27T08:48:36.305Z,52.40
2023-04-27T08:51:30.045Z,51.93
2023-04-27T08:54:08.882Z,49.62
2023-04-27T08:57:03.255Z,48.07
2023-04-27T09:00:02.220Z,47.52
2023-04-27T09:02:55.437Z,46.98
2023-04-27T09:06:03.650Z,46.69
2023-04-27T09:08:58.462Z,47.55
2023-04-27T09:11:51.395Z,47.24
2023-04-27T09:14:27.026Z,47.04
2023-04-27T09:17:00.337Z,44.23
2023-04-27T09:19:54.139Z,43.62
2023-04-27T09:22:46.250Z,43.06
2023-04-27T09:25:29.813Z,42.84
2023-04-27T09:28:04.966Z,43.13
2023-04-27T09:30:40.539Z,42.55
2023-04-27T09:33:16.244Z,43.26
2023-04-27T09:35:50.835Z,43.07
2023-04-27T09:38:24.332Z,43.39
2023-04-27T09:40:57.791Z,43.71
2023-04-27T09:43:32.166Z,43.59
2023-04-27T09:46:08.500Z,43.75
2023-04-27T09:48:53.994Z,44.07
2023-04-27T09:51:47.704Z,44.27
2023-04-27T09:54:22.045Z,43.79
2023-04-27T09:57:10.833Z,44.21
2023-04-27T10:00:11.116Z,44.05
2023-04-27T10:03:07.803Z,43.51
2023-04-27T10:06:05.158Z,42.79
2023-04-27T10:08:41.987Z,41.61
2023-04-27T10:11:19.643Z,41.13
2023-04-27T10:13:58.012Z,42.25
2023-04-27T10:16:45.618Z,41.47
2023-04-27T10:19:38.872Z,40.24
2023-04-27T10:22:45.949Z,39.91
2023-04-27T10:25:31.045Z,40.18
2023-04-27T10:28:08.438Z,40.00
2023-04-27T10:30:46.461Z,39.53
2023-04-27T10:33:24.185Z,39.09
2023-04-27T10:36:00.917Z,39.02
2023-04-27T10:38:33.997Z,39.63
2023-04-27T10:41:14.177Z,39.83
2023-04-27T10:43:56.057Z,40.32
2023-04-27T10:46:32.108Z,39.98
2023-04-27T10:49:10.791Z,40.16
2023-04-27T10:51:44.109Z,41.19
2023-04-27T10:54:16.895Z,41.33
2023-04-27T10:57:05.529Z,40.89
2023-04-27T10:59:51.650Z,40.00
2023-04-27T11:02:37.397Z,40.17
2023-04-27T11:05:33.163Z,39.08
2023-04-27T11:08:10.286Z,38.34
2023-04-27T11:10:50.380Z,38.48
2023-04-27T11:13:44.590Z,38.30
2023-04-27T11:16:20.867Z,38.02
2023-04-27T11:18:59.107Z,37.62
2023-04-27T11:21:35.756Z,37.19
2023-04-27T11:24:15.158Z,35.56
2023-04-27T11:26:54.818Z,35.43
2023-04-27T11:29:38.471Z,36.00
2023-04-27T11:32:20.113Z,36.03
2023-04-27T11:34:57.783Z,35.28
2023-04-27T11:37:34.598Z,35.13
2023-04-27T11:40:11.486Z,34.51
2023-04-27T11:42:47.135Z,35.85
2023-04-27T11:45:26.650Z,36.81
2023-04-27T11:48:04.121Z,37.36
2023-04-27T11:50:59.238Z,37.39
2023-04-27T11:53:37.053Z,37.27
2023-04-27T11:56:19.767Z,37.54
2023-04-27T11:59:25.764Z,37.94
2023-04-27T12:01:58.380Z,37.90
2023-04-27T12:04:32.257Z,38.24
2023-04-27T12:07:07.277Z,38.52
2023-04-27T12:09:42.289Z,39.12
2023-04-27T12:12:17.055Z,38.57
2023-04-27T12:14:49.895Z,38.59
2023-04-27T12:17:43.296Z,38.47
2023-04-27T12:20:36.551Z,38.45
2023-04-27T12:23:12.453Z,38.35
2023-04-27T12:25:45.651Z,38.41
2023-04-27T12:28:31.424Z,38.27
2023-04-27T12:31:08.628Z,37.83
2023-04-27T12:33:44.665Z,37.58
2023-04-27T12:36:30.145Z,36.11
2023-04-27T12:39:20.469Z,35.42
2023-04-27T12:42:00.671Z,35.41
2023-04-27T12:44:34.654Z,35.31
2023-04-27T12:47:17.425Z,35.46
2023-04-27T12:49:56.745Z,36.01
2023-04-27T12:52:31.932Z,36.53
2023-04-27T12:55:06.253Z,36.42
2023-04-27T12:57:59.170Z,36.97
2023-04-27T13:00:39.776Z,37.32
2023-04-27T13:03:12.654Z,37.71
2023-04-27T13:05:47.778Z,37.94
2023-04-27T13:08:20.560Z,38.24
2023-04-27T13:10:53.274Z,37.88
2023-04-27T13:13:27.127Z,37.66
2023-04-27T13:16:12.990Z,38.00
2023-04-27T13:18:49.967Z,37.61
2023-04-27T13:21:25.771Z,37.68
2023-04-27T13:24:09.449Z,37.88
2023-04-27T13:26:42.132Z,37.51
2023-04-27T13:29:34.957Z,37.23
2023-04-27T13:32:27.836Z,37.78
2023-04-27T13:35:20.962Z,37.61
2023-04-27T13:38:13.688Z,37.73
2023-04-27T13:40:58.102Z,37.27
2023-04-27T13:43:40.427Z,37.39
2023-04-27T13:46:15.550Z,37.32
2023-04-27T13:48:50.696Z,37.23
2023-04-27T13:51:23.301Z,36.70
2023-04-27T13:54:00.215Z,37.10
2023-04-27T13:56:35.962Z,37.50
2023-04-27T13:59:10.676Z,37.52
2023-04-27T14:01:45.516Z,37.68
2023-04-27T14:04:40.923Z,37.23
2023-04-27T14:07:13.523Z,37.11
2023-04-27T14:09:47.817Z,37.62
2023-04-27T14:12:23.052Z,38.03
2023-04-27T14:14:57.883Z,38.01
2023-04-27T14:17:33.414Z,38.19
2023-04-27T14:20:08.067Z,38.71
2023-04-27T14:22:40.767Z,38.49
2023-04-27T14:28:02.214Z,38.25
2023-04-27T14:30:36.025Z,37.91
2023-04-27T14:33:08.890Z,37.69
2023-04-27T14:35:45.133Z,37.85
2023-04-27T14:38:17.639Z,38.08
2023-04-27T14:40:50.046Z,38.19
2023-04-27T14:43:22.665Z,38.56
2023-04-27T14:46:01.885Z,38.56
2023-04-27T14:48:41.604Z,38.93
2023-04-27T14:51:14.079Z,39.28
2023-04-27T14:53:49.843Z,39.80
2023-04-27T14:56:24.333Z,39.76
2023-04-27T14:58:57.882Z,39.83
2023-04-27T15:01:30.583Z,39.89
2023-04-27T15:04:03.310Z,39.98
2023-04-27T15:06:36.201Z,39.98
2023-04-27T15:09:09.170Z,40.57
2023-04-27T15:11:44.382Z,40.27
2023-04-27T15:14:16.874Z,40.41
2023-04-27T15:16:49.547Z,40.23
2023-04-27T15:19:22.171Z,40.49
2023-04-27T15:21:54.640Z,40.25
2023-04-27T15:24:28.166Z,40.49
2023-04-27T15:27:00.960Z,39.91
2023-04-27T15:29:33.473Z,39.88
2023-04-27T15:32:06.302Z,39.96
2023-04-27T15:34:42.641Z,39.67
2023-04-27T15:37:15.366Z,39.84
2023-04-27T15:39:47.787Z,40.40
2023-04-27T15:42:20.613Z,40.65
2023-04-27T15:44:53.506Z,40.64
2023-04-27T15:47:26.245Z,40.84
2023-04-27T15:49:59.552Z,40.56
2023-04-27T15:52:33.944Z,40.38
2023-04-27T15:55:07.107Z,40.59
2023-04-27T15:57:40.036Z,40.82
2023-04-27T16:00:16.601Z,40.98
2023-04-27T16:02:49.571Z,40.66
2023-04-27T16:05:42.405Z,40.49
2023-04-27T16:08:15.539Z,40.76
2023-04-27T16:10:58.460Z,41.12
2023-04-27T16:13:51.313Z,41.20
2023-04-27T16:16:39.872Z,41.65
2023-04-27T16:19:12.680Z,42.19
2023-04-27T16:22:05.749Z,42.23
2023-04-27T16:24:38.416Z,42.61
2023-04-27T16:27:11.660Z,42.98
2023-04-27T16:29:44.036Z,43.45
2023-04-27T16:32:37.115Z,43.56
2023-04-27T16:35:15.384Z,43.94
2023-04-27T16:37:58.122Z,43.96
2023-04-27T16:40:33.541Z,44.66
2023-04-27T16:43:07.998Z,44.73
2023-04-27T16:45:44.127Z,45.06
2023-04-27T16:48:36.908Z,45.06
2023-04-27T16:51:14.110Z,45.15
2023-04-27T16:54:07.241Z,44.83
2023-04-27T16:56:43.502Z,44.97
2023-04-27T16:59:27.755Z,45.18
2023-04-27T17:02:16.487Z,45.73
2023-04-27T17:05:08.007Z,45.64
2023-04-27T17:07:50.867Z,45.83
2023-04-27T17:10:26.855Z,46.20
2023-04-27T17:13:02.598Z,46.35
2023-04-27T17:15:42.289Z,46.44
2023-04-27T17:18:18.393Z,46.58
2023-04-27T17:20:51.331Z,46.94
2023-04-27T17:23:26.849Z,47.09
2023-04-27T17:26:01.487Z,47.40
2023-04-27T17:28:37.254Z,47.60
2023-04-27T17:31:12.128Z,48.54
2023-04-27T17:33:52.464Z,48.52
2023-04-27T17:36:27.322Z,48.76
2023-04-27T17:39:03.495Z,49.21
2023-04-27T17:41:43.554Z,49.25
2023-04-27T17:44:19.804Z,49.34
2023-04-27T17:46:53.920Z,49.52
2023-04-27T17:49:46.685Z,49.75
2023-04-27T17:52:34.743Z,49.65
2023-04-27T17:55:27.597Z,49.85
2023-04-27T17:58:22.287Z,50.32
2023-04-27T18:01:15.277Z,50.37
2023-04-27T18:04:08.296Z,51.13
2023-04-27T18:07:01.385Z,51.00
2023-04-27T18:09:54.100Z,51.22
2023-04-27T18:12:46.883Z,51.32
2023-04-27T18:15:33.346Z,51.56
2023-04-27T18:18:27.037Z,51.88
2023-04-27T18:21:19.355Z,52.51
2023-04-27T18:24:12.479Z,52.99
2023-04-27T18:27:05.589Z,52.92
2023-04-27T18:29:58.662Z,53.37
2023-04-27T18:32:35.732Z,53.65
2023-04-27T18:35:12.554Z,52.77
2023-04-27T18:37:58.169Z,53.52
2023-04-27T18:40:51.143Z,53.70
2023-04-27T18:43:44.204Z,53.97
2023-04-27T18:46:37.047Z,54.41
2023-04-27T18:49:15.362Z,55.44
2023-04-27T18:51:53.140Z,56.16
2023-04-27T18:54:25.518Z,56.97
2023-04-27T18:57:02.521Z,57.83
2023-04-27T18:59:35.194Z,58.28
2023-04-27T19:02:08.168Z,58.69
2023-04-27T19:04:52.838Z,58.80
2023-04-27T19:07:32.651Z,59.18
2023-04-27T19:10:07.195Z,59.85
2023-04-27T19:13:01.016Z,60.33
2023-04-27T19:15:36.380Z,61.01
2023-04-27T19:18:10.939Z,62.57
2023-04-27T19:20:46.314Z,64.38
2023-04-27T19:23:19.893Z,63.75
2023-04-27T19:25:55.123Z,63.15
2023-04-27T19:28:29.908Z,62.81
2023-04-27T19:31:05.061Z,63.91
2023-04-27T19:33:46.741Z,63.93
2023-04-27T19:36:22.194Z,64.01
2023-04-27T19:38:55.268Z,64.08
2023-04-27T19:41:29.604Z,64.28
2023-04-27T19:44:02.065Z,64.41
2023-04-27T19:46:44.855Z,64.90
2023-04-27T19:49:27.592Z,64.62
2023-04-27T19:52:01.880Z,64.43
2023-04-27T19:54:36.044Z,64.27
2023-04-27T19:57:29.072Z,63.99
2023-04-27T20:00:15.856Z,64.04
2023-04-27T20:03:09.350Z,64.07
2023-04-27T20:05:52.900Z,64.04
2023-04-27T20:08:29.160Z,64.12
2023-04-27T20:11:02.360Z,64.70
2023-04-27T20:13:35.070Z,64.30
2023-04-27T20:16:10.183Z,64.08
2023-04-27T20:18:45.481Z,63.82
2023-04-27T20:21:18.314Z,63.37
2023-04-27T20:23:52.467Z,63.57
2023-04-27T20:26:26.158Z,63.80
2023-04-27T20:29:08.795Z,64.17
2023-04-27T20:31:41.601Z,64.45
2023-04-27T20:34:14.676Z,64.70
2023-04-27T20:36:47.441Z,64.98
2023-04-27T20:39:20.014Z,65.12
2023-04-27T20:41:52.779Z,65.49
2023-04-27T20:44:25.453Z,65.68
2023-04-27T20:46:57.767Z,65.67
2023-04-27T20:49:35.282Z,65.85
2023-04-27T20:52:09.291Z,66.28
2023-04-27T20:54:41.853Z,66.51
2023-04-27T20:57:14.582Z,66.74
2023-04-27T20:59:47.495Z,66.98
2023-04-27T21:02:20.548Z,69.28
2023-04-27T21:04:57.876Z,70.48
2023-04-27T21:07:33.265Z,69.70
2023-04-27T21:10:10.520Z,68.89
2023-04-27T21:12:48.160Z,67.61
2023-04-27T21:15:20.929Z,65.97
2023-04-27T21:17:53.885Z,64.82
2023-04-27T21:20:29.363Z,63.91
2023-04-27T21:23:01.817Z,63.28
2023-04-27T21:25:46.405Z,62.40
2023-04-27T21:28:40.321Z,61.83
2023-04-27T21:31:27.013Z,61.42
2023-04-27T21:34:04.725Z,61.46
2023-04-27T21:36:59.888Z,61.29
2023-04-27T21:39:32.704Z,61.18
2023-04-27T21:42:05.817Z,61.79
2023-04-27T21:44:38.350Z,62.14
2023-04-27T21:47:21.597Z,62.73
2023-04-27T21:50:08.714Z,63.35
2023-04-27T21:52:41.425Z,63.46
2023-04-27T21:55:17.415Z,63.65
2023-04-27T21:57:51.815Z,64.20
2023-04-27T22:00:25.896Z,64.61
2023-04-27T22:02:58.947Z,64.82
2023-04-27T22:05:33.730Z,65.09
2023-04-27T22:08:18.331Z,65.27
2023-04-27T22:10:51.026Z,68.13
2023-04-27T22:13:23.715Z,69.69
2023-04-27T22:15:56.504Z,68.42
2023-04-27T22:18:29.434Z,67.03
2023-04-27T22:21:04.092Z,65.45
2023-04-27T22:23:37.254Z,65.43
2023-04-27T22:26:12.282Z,64.20
2023-04-27T22:28:44.763Z,62.33
2023-04-27T22:31:17.605Z,58.71
2023-04-27T22:33:51.314Z,55.92
2023-04-27T22:36:35.852Z,56.13
2023-04-27T22:39:11.952Z,57.42
2023-04-27T22:41:45.932Z,58.67
2023-04-27T22:44:18.490Z,59.80
2023-04-27T22:46:51.352Z,60.94
2023-04-27T22:49:27.127Z,64.17
2023-04-27T22:52:00.057Z,67.30
2023-04-27T22:54:34.303Z,67.37
2023-04-27T22:57:06.778Z,66.57
2023-04-27T22:59:41.735Z,66.69
2023-04-27T23:02:14.054Z,65.19
2023-04-27T23:04:46.793Z,63.43
2023-04-27T23:07:23.439Z,61.70
2023-04-27T23:09:56.037Z,58.00
2023-04-27T23:12:31.784Z,55.36
2023-04-27T23:15:08.845Z,55.67
2023-04-27T23:17:44.524Z,56.64
2023-04-27T23:22:59.497Z,58.76
2023-04-27T23:25:36.248Z,60.04
2023-04-27T23:28:09.146Z,63.96
2023-04-27T23:30:44.631Z,67.98
2023-04-27T23:33:20.227Z,65.99
2023-04-27T23:35:54.737Z,63.38
2023-04-27T23:38:31.748Z,61.11
2023-04-27T23:41:07.013Z,57.33
2023-04-27T23:43:43.340Z,55.02
2023-04-27T23:46:19.180Z,55.67
2023-04-27T23:48:57.718Z,56.74
2023-04-27T23:51:31.029Z,58.04
2023-04-27T23:54:03.635Z,59.26
2023-04-27T23:56:36.841Z,60.55
2023-04-27T23:59:10.814Z,63.93
